Decoded Metar for KRKS (ROCK SPRINGS in WY, USA) (IATA:RKS) | Meteo·Mobile Aviation Weather
aviador You're here:

KRKS Decoded Metar

ROCK SPRINGS in WY, USA
Report Time2018-10-22 09:54:00
UTC Time2018-10-22 10:27:11
Flight Rules vfr VFR
Wind150° at 07 kt
W.Decomp.*RWY 09: 4.8 kt HW 5.1 kt RCW
RWY 21: 2.0 kt HW 6.7 kt LCW
W.Rank150° ranks 19
Current wind is below 150° avg. (7.6)
Visibility9999 m
Phenomena:N/A
Clouds:N/A
Expected CloudBase > 2,000 ft AGL from Temp-Dew spread
CeilingNone
Temp06°C (ISA +4)
Dew Point01°C (71% RH)
AAT1.7°C
QNH1023 hPa
Density Alt7,051 ft
Elevation6,759 ft
Report Wrong Elevation
Raw Report
KRKS 220954Z AUTO 15007KT 10SM CLR 06/01 A3020 RMK AO2 SLP179
T00560006=

Extra information for KRKS:More info

Metar Taf Metar & Taf Last 4 Metars F.Rules Stats Wind Profile Meteogram Temp Stats Airport Information Weather charts Add Link Nearby VenuesMetar ALERT Operation Metar Decoded Social comments

AIRNAV info for KRKS